Time;durP1;ratioP1;P1;durP2;ratioP2;P2;SDS_P1;SDS_P2;PMS_P1;PMS_P2;Temp;Humidity;BMP_temperature;BMP_pressure;BME280_temperature;BME280_humidity;BME280_pressure;Samples;Min_cycle;Max_cycle;Signal;HPM_P1;HPM_P2
2023/08/08 00:00:16;;;;;;;1.02;0.90;;;;;;;33.12;27.55;101034.78;5121345;27;20051;-79
2023/08/08 00:02:45;;;;;;;3.13;1.30;;;;;;;33.06;27.75;101030.66;5133440;27;20043;-82
2023/08/08 00:05:13;;;;;;;1.58;0.90;;;;;;;33.02;28.22;101034.44;5125226;27;20115;-79
2023/08/08 00:07:43;;;;;;;3.47;1.00;;;;;;;33.04;28.69;101029.00;5126860;27;20043;-81
2023/08/08 00:10:12;;;;;;;1.27;0.82;;;;;;;33.09;28.52;101030.47;5126534;27;20058;-81
2023/08/08 00:12:41;;;;;;;1.50;0.98;;;;;;;33.08;28.44;101028.75;5129184;27;20085;-76
2023/08/08 00:15:10;;;;;;;2.58;0.93;;;;;;;33.14;28.12;101030.19;5125453;27;20053;-83
2023/08/08 00:17:39;;;;;;;2.17;0.70;;;;;;;33.07;28.54;101031.53;5123733;27;20693;-82
2023/08/08 00:20:08;;;;;;;0.95;0.77;;;;;;;32.95;28.15;101030.41;5126050;27;20056;-78
2023/08/08 00:22:37;;;;;;;1.98;0.90;;;;;;;32.78;28.09;101020.72;5121630;27;20047;-79
2023/08/08 00:25:10;;;;;;;1.42;0.95;;;;;;;32.59;28.58;101017.38;5137302;27;20051;-82
2023/08/08 00:27:42;;;;;;;1.63;0.85;;;;;;;32.46;28.70;101019.88;5120682;27;20153;-80
2023/08/08 00:30:11;;;;;;;1.52;0.80;;;;;;;32.33;29.42;101023.28;5119595;27;20112;-83
2023/08/08 00:32:40;;;;;;;1.20;0.82;;;;;;;32.32;30.12;101020.66;5128028;27;20059;-81
2023/08/08 00:35:09;;;;;;;0.98;0.70;;;;;;;32.33;30.31;101015.25;5127929;27;20108;-83
2023/08/08 00:37:40;;;;;;;4.57;0.90;;;;;;;32.38;29.58;101014.13;5131326;27;20130;-79
2023/08/08 00:40:11;;;;;;;3.20;1.03;;;;;;;32.42;30.31;101010.31;5121841;27;20047;-77
2023/08/08 00:42:39;;;;;;;2.10;1.02;;;;;;;32.50;30.28;101006.22;5127696;27;20074;-85
2023/08/08 00:45:09;;;;;;;3.38;1.10;;;;;;;32.64;29.86;101002.75;5125004;27;20046;-78
2023/08/08 00:47:38;;;;;;;3.42;0.90;;;;;;;32.76;30.21;101002.03;5125250;27;20070;-77
2023/08/08 00:50:08;;;;;;;1.52;0.63;;;;;;;32.82;29.93;101005.31;5118819;27;20482;-78
2023/08/08 00:52:39;;;;;;;1.40;0.90;;;;;;;32.80;30.36;100996.50;5124778;27;20054;-82
2023/08/08 00:55:10;;;;;;;2.83;1.17;;;;;;;32.73;29.89;100996.88;5129842;27;20054;-85
2023/08/08 00:57:42;;;;;;;5.68;1.00;;;;;;;32.71;30.31;100995.22;5127594;27;20078;-82
2023/08/08 01:00:12;;;;;;;1.85;1.00;;;;;;;32.71;30.40;101001.47;5120644;27;20047;-81
2023/08/08 01:02:41;;;;;;;1.95;0.93;;;;;;;32.70;30.28;100999.72;5123516;27;20051;-83
2023/08/08 01:05:10;;;;;;;1.00;0.65;;;;;;;32.67;30.23;100994.56;5125871;27;20083;-81
2023/08/08 01:07:45;;;;;;;1.38;0.90;;;;;;;32.58;30.44;101003.13;5121295;27;20062;-82
2023/08/08 01:10:18;;;;;;;1.70;0.98;;;;;;;32.52;31.05;100992.78;5122302;27;20753;-83
2023/08/08 01:12:50;;;;;;;2.42;0.77;;;;;;;32.47;31.16;101000.19;5127676;27;20054;-81
2023/08/08 01:15:20;;;;;;;2.20;0.80;;;;;;;32.38;31.03;101001.59;5121714;27;20068;-76
2023/08/08 01:17:50;;;;;;;2.78;0.90;;;;;;;32.26;30.96;100997.81;5127744;27;20047;-80
2023/08/08 01:20:22;;;;;;;2.05;1.00;;;;;;;32.18;31.51;101000.03;5125286;27;20485;-78
2023/08/08 01:23:13;;;;;;;2.75;0.90;;;;;;;32.10;32.34;101003.16;5126309;27;20104;-82
2023/08/08 01:25:44;;;;;;;1.63;0.95;;;;;;;31.98;32.57;100993.16;5124135;27;20047;-79
2023/08/08 01:28:14;;;;;;;1.80;0.93;;;;;;;31.88;31.98;100997.28;5119866;27;20047;-80
2023/08/08 01:30:43;;;;;;;1.60;0.75;;;;;;;31.80;32.41;100994.19;5116938;27;20111;-81
2023/08/08 01:33:19;;;;;;;1.15;0.70;;;;;;;31.70;33.01;100993.78;5121932;27;20051;-79
2023/08/08 01:35:52;;;;;;;1.35;0.93;;;;;;;31.61;33.07;100989.84;5127033;27;20570;-78
2023/08/08 01:38:25;;;;;;;3.28;1.10;;;;;;;31.56;32.97;100989.22;5126477;27;20039;-79
2023/08/08 01:40:58;;;;;;;3.13;0.88;;;;;;;31.48;33.10;100986.97;5126140;27;20100;-82
2023/08/08 01:43:28;;;;;;;1.27;0.73;;;;;;;31.45;33.41;100995.16;5126219;27;20504;-78
2023/08/08 01:45:57;;;;;;;2.35;0.77;;;;;;;31.41;33.65;100998.09;5123224;27;20035;-81
2023/08/08 01:48:28;;;;;;;4.03;0.70;;;;;;;31.40;33.70;100993.63;5119480;27;20112;-74
2023/08/08 01:50:57;;;;;;;1.60;0.68;;;;;;;31.36;34.02;100997.41;5124491;27;20071;-78
2023/08/08 01:53:25;;;;;;;1.00;0.55;;;;;;;31.22;33.58;100992.81;5124837;27;20039;-74
2023/08/08 01:55:56;;;;;;;2.55;0.95;;;;;;;31.12;33.16;100991.59;5128233;27;20607;-77
2023/08/08 01:58:24;;;;;;;2.92;1.00;;;;;;;31.02;33.86;100993.88;5126055;27;20043;-77
2023/08/08 02:00:53;;;;;;;2.85;0.70;;;;;;;30.93;33.63;100992.53;5129333;27;20047;-79
2023/08/08 02:03:22;;;;;;;1.10;0.57;;;;;;;30.75;33.66;100990.78;5128570;27;20047;-76
2023/08/08 02:05:51;;;;;;;1.20;0.63;;;;;;;30.59;34.12;100996.91;5129998;27;20051;-77
2023/08/08 02:08:19;;;;;;;1.40;0.70;;;;;;;30.39;34.51;100991.69;5126200;27;20055;-78
2023/08/08 02:10:56;;;;;;;1.17;0.60;;;;;;;30.29;34.74;101001.97;5121912;27;20083;-76
2023/08/08 02:13:26;;;;;;;2.15;0.70;;;;;;;30.08;35.24;100990.50;5130517;27;20047;-80
2023/08/08 02:15:55;;;;;;;1.08;0.65;;;;;;;29.95;35.43;100992.91;5127906;27;20389;-78
2023/08/08 02:18:24;;;;;;;1.77;0.77;;;;;;;29.85;36.07;100994.28;5127173;27;20047;-78
2023/08/08 02:20:55;;;;;;;0.80;0.50;;;;;;;29.74;36.17;101004.59;5122333;27;20438;-77
2023/08/08 02:23:24;;;;;;;0.98;0.70;;;;;;;29.62;36.30;101004.19;5126366;27;20039;-79
2023/08/08 02:25:53;;;;;;;0.95;0.60;;;;;;;29.50;36.48;100998.53;5128620;27;20050;-78
2023/08/08 02:28:21;;;;;;;0.98;0.43;;;;;;;29.28;36.66;101006.66;5122267;27;20105;-79
2023/08/08 02:30:52;;;;;;;1.02;0.60;;;;;;;29.16;36.83;101003.59;5125724;27;20547;-78
2023/08/08 02:33:24;;;;;;;2.20;0.60;;;;;;;29.10;37.04;101005.66;5123590;27;20071;-78
2023/08/08 02:35:53;;;;;;;0.57;0.40;;;;;;;29.04;36.75;101004.09;5125748;27;20778;-77
2023/08/08 02:38:21;;;;;;;2.53;0.70;;;;;;;29.01;37.23;101004.22;5124076;27;20056;-78
2023/08/08 02:40:50;;;;;;;1.20;0.82;;;;;;;28.94;36.46;101006.28;5125911;27;20042;-78
2023/08/08 02:43:19;;;;;;;2.45;0.60;;;;;;;28.85;37.04;101014.69;5125322;27;20481;-76
2023/08/08 02:45:47;;;;;;;0.95;0.73;;;;;;;28.75;37.08;101013.34;5129255;27;20039;-79
2023/08/08 02:48:17;;;;;;;0.70;0.60;;;;;;;28.67;37.48;101012.81;5124328;27;20043;-76
2023/08/08 02:50:46;;;;;;;1.23;0.70;;;;;;;28.56;37.54;101015.91;5125285;27;20070;-76
2023/08/08 02:53:15;;;;;;;0.65;0.50;;;;;;;28.46;37.44;101023.38;5119213;27;20050;-77
2023/08/08 02:55:46;;;;;;;1.83;0.73;;;;;;;28.28;37.58;101024.13;5122596;27;20048;-78
2023/08/08 02:58:15;;;;;;;2.13;0.50;;;;;;;28.23;37.88;101026.09;5125419;27;20054;-78
2023/08/08 03:00:44;;;;;;;1.27;0.70;;;;;;;28.12;38.13;101024.72;5124702;27;20063;-78
2023/08/08 03:03:12;;;;;;;2.85;1.15;;;;;;;28.06;38.23;101029.41;5128808;27;20153;-77
2023/08/08 03:05:44;;;;;;;0.85;0.63;;;;;;;27.96;38.42;101035.09;5128568;27;20051;-76
2023/08/08 03:08:13;;;;;;;1.73;0.60;;;;;;;27.84;38.40;101045.34;5125534;27;20146;-78
2023/08/08 03:10:42;;;;;;;0.90;0.60;;;;;;;27.68;38.42;101045.88;5127399;27;20054;-81
2023/08/08 03:13:11;;;;;;;1.48;0.50;;;;;;;27.62;38.83;101047.91;5129099;27;20047;-82
2023/08/08 03:15:39;;;;;;;1.08;0.60;;;;;;;27.50;39.29;101046.56;5124014;27;20054;-79
2023/08/08 03:18:08;;;;;;;0.82;0.63;;;;;;;27.43;39.06;101050.38;5120811;27;20051;-78
2023/08/08 03:20:37;;;;;;;0.88;0.68;;;;;;;27.33;38.69;101050.69;5122395;27;20146;-79
2023/08/08 03:23:07;;;;;;;0.60;0.50;;;;;;;27.24;38.73;101043.06;5129440;27;20049;-78
2023/08/08 03:25:36;;;;;;;1.58;0.85;;;;;;;27.20;38.54;101044.06;5126523;27;20630;-83
2023/08/08 03:28:04;;;;;;;2.25;0.63;;;;;;;27.18;39.31;101045.88;5116806;27;20572;-81
2023/08/08 03:30:37;;;;;;;1.23;0.52;;;;;;;27.12;38.71;101056.72;5129312;27;20054;-79
2023/08/08 03:33:06;;;;;;;0.95;0.50;;;;;;;27.06;38.13;101059.59;5132076;27;20090;-81
2023/08/08 03:35:35;;;;;;;1.00;0.55;;;;;;;27.02;38.39;101055.31;5129096;27;20039;-83
2023/08/08 03:38:04;;;;;;;1.35;0.77;;;;;;;27.01;37.88;101061.53;5125251;27;20055;-79
2023/08/08 03:40:34;;;;;;;1.67;0.60;;;;;;;26.92;37.13;101060.06;5120697;27;20084;-78
2023/08/08 03:43:03;;;;;;;3.00;0.60;;;;;;;26.82;37.59;101067.44;5116703;27;20043;-78
2023/08/08 03:45:32;;;;;;;4.03;0.60;;;;;;;26.75;37.65;101073.88;5128279;27;20065;-78
2023/08/08 03:48:00;;;;;;;1.00;0.60;;;;;;;26.69;37.72;101074.09;5122397;27;20040;-80
2023/08/08 03:50:29;;;;;;;2.65;0.90;;;;;;;26.66;37.68;101085.69;5126130;27;20039;-79
2023/08/08 03:52:59;;;;;;;1.05;0.70;;;;;;;26.67;38.19;101075.94;5120065;27;20092;-77
2023/08/08 03:55:28;;;;;;;1.92;0.60;;;;;;;26.62;39.72;101086.72;5127119;27;20136;-80
2023/08/08 03:57:58;;;;;;;3.60;0.63;;;;;;;26.56;38.60;101083.38;5130084;27;20464;-77
2023/08/08 04:00:27;;;;;;;0.80;0.40;;;;;;;26.51;39.03;101086.16;5126653;27;20039;-78
2023/08/08 04:02:56;;;;;;;0.68;0.50;;;;;;;26.46;39.20;101088.94;5124106;27;20271;-77
2023/08/08 04:05:24;;;;;;;2.78;0.52;;;;;;;26.42;39.18;101089.94;5123397;27;20054;-79
2023/08/08 04:07:53;;;;;;;2.00;0.40;;;;;;;26.38;39.18;101088.31;5121288;27;20071;-80
2023/08/08 04:10:22;;;;;;;2.15;0.50;;;;;;;26.33;39.52;101082.28;5124210;27;20050;-78
2023/08/08 04:12:50;;;;;;;1.35;0.60;;;;;;;26.30;40.12;101093.00;5121905;27;20117;-80
2023/08/08 04:15:28;;;;;;;1.67;0.38;;;;;;;26.24;40.31;101087.88;5128281;27;20080;-78
2023/08/08 04:17:56;;;;;;;1.15;0.50;;;;;;;26.19;40.60;101095.09;5121715;27;20134;-78
2023/08/08 04:20:25;;;;;;;1.63;0.60;;;;;;;26.10;40.53;101086.50;5118747;27;20074;-80
2023/08/08 04:22:54;;;;;;;2.63;0.50;;;;;;;26.06;40.46;101084.84;5111788;27;20538;-78
2023/08/08 04:25:23;;;;;;;1.30;0.52;;;;;;;26.00;41.40;101095.66;5113896;27;20047;-80
2023/08/08 04:27:51;;;;;;;0.55;0.40;;;;;;;25.95;41.31;101094.03;5113379;27;20171;-79
2023/08/08 04:30:31;;;;;;;0.35;0.30;;;;;;;25.91;41.63;101099.44;5116946;27;20047;-79
2023/08/08 04:33:06;;;;;;;2.22;0.50;;;;;;;25.86;42.00;101103.97;5114663;27;20055;-81
2023/08/08 04:35:41;;;;;;;0.60;0.50;;;;;;;25.79;42.30;101109.47;5105771;27;20047;-79
2023/08/08 04:38:10;;;;;;;0.47;0.38;;;;;;;25.71;42.38;101107.91;5121334;27;20607;-77
2023/08/08 04:40:39;;;;;;;1.38;0.60;;;;;;;25.65;42.40;101108.06;5121409;27;20051;-80
2023/08/08 04:43:07;;;;;;;0.70;0.40;;;;;;;25.62;42.58;101116.09;5119683;27;20055;-77
2023/08/08 04:45:37;;;;;;;0.40;0.40;;;;;;;25.57;42.81;101115.38;5120808;27;20516;-79
2023/08/08 04:48:07;;;;;;;0.60;0.50;;;;;;;25.54;42.91;101122.50;5124061;27;20047;-79
2023/08/08 04:50:36;;;;;;;1.67;0.40;;;;;;;25.49;42.82;101120.88;5124204;27;20067;-77
2023/08/08 04:53:05;;;;;;;0.98;0.35;;;;;;;25.42;43.26;101121.06;5118344;27;20644;-76
2023/08/08 04:55:36;;;;;;;0.70;0.52;;;;;;;25.37;43.74;101121.19;5112594;27;20050;-77
2023/08/08 04:58:04;;;;;;;0.57;0.50;;;;;;;25.34;43.90;101117.78;5111583;28;20040;-79
2023/08/08 05:00:33;;;;;;;2.80;0.47;;;;;;;25.29;43.62;101120.53;5120407;27;20048;-79
2023/08/08 05:03:03;;;;;;;0.40;0.40;;;;;;;25.23;44.14;101121.53;5106469;28;20113;-77
2023/08/08 05:05:32;;;;;;;1.05;0.40;;;;;;;25.17;44.58;101115.50;5111934;27;20051;-78
2023/08/08 05:08:01;;;;;;;0.82;0.50;;;;;;;25.15;44.08;101115.56;5116462;27;20522;-77
2023/08/08 05:10:30;;;;;;;0.60;0.40;;;;;;;25.13;44.34;101119.13;5121138;27;20503;-78
2023/08/08 05:12:59;;;;;;;1.48;0.38;;;;;;;25.10;44.56;101117.44;5118098;27;20043;-76
2023/08/08 05:15:28;;;;;;;0.55;0.40;;;;;;;25.06;44.95;101123.75;5121402;27;20072;-79
2023/08/08 05:18:00;;;;;;;0.50;0.40;;;;;;;25.02;45.11;101120.28;5120093;27;20049;-82
2023/08/08 05:20:31;;;;;;;0.45;0.40;;;;;;;24.97;45.36;101122.19;5116191;27;20054;-81
2023/08/08 05:23:00;;;;;;;1.15;0.52;;;;;;;24.92;45.54;101120.53;5121561;27;20520;-80
2023/08/08 05:25:29;;;;;;;0.70;0.50;;;;;;;24.79;45.94;101115.56;5128602;27;20519;-80
2023/08/08 05:27:57;;;;;;;1.17;0.55;;;;;;;24.74;45.75;101114.78;5125454;27;20134;-78
2023/08/08 05:30:27;;;;;;;1.42;0.40;;;;;;;24.71;46.83;101120.13;5124226;27;20046;-77
2023/08/08 05:32:55;;;;;;;0.52;0.40;;;;;;;24.66;46.21;101116.72;5126030;27;20635;-77
2023/08/08 05:35:24;;;;;;;1.27;0.47;;;;;;;24.60;46.63;101123.06;5131183;27;20039;-78
2023/08/08 05:37:54;;;;;;;0.50;0.50;;;;;;;24.53;47.11;101121.41;5126814;27;20059;-80
2023/08/08 05:40:23;;;;;;;1.38;0.52;;;;;;;24.43;47.12;101117.22;5130925;27;20107;-78
2023/08/08 05:42:52;;;;;;;1.08;0.70;;;;;;;24.38;47.16;101133.19;5129318;27;20046;-79
2023/08/08 05:45:21;;;;;;;1.30;0.50;;;;;;;24.32;47.98;101129.81;5128085;27;20462;-77
2023/08/08 05:47:50;;;;;;;1.00;0.50;;;;;;;24.24;47.94;101130.00;5119878;27;20047;-78
2023/08/08 05:50:19;;;;;;;0.93;0.50;;;;;;;24.15;48.24;101124.91;5125489;27;20127;-76
2023/08/08 05:52:47;;;;;;;0.52;0.40;;;;;;;24.06;48.44;101114.50;5129321;27;20104;-76
2023/08/08 05:55:20;;;;;;;0.80;0.50;;;;;;;24.06;48.43;101127.72;5127644;27;20460;-80
2023/08/08 05:57:49;;;;;;;0.70;0.43;;;;;;;23.93;48.53;101120.03;5130922;27;20051;-77
2023/08/08 06:00:19;;;;;;;0.73;0.50;;;;;;;23.88;49.12;101124.53;5122744;27;20562;-79
2023/08/08 06:02:50;;;;;;;2.65;0.60;;;;;;;23.79;49.27;101122.94;5127988;27;20728;-78
2023/08/08 06:05:19;;;;;;;1.73;0.60;;;;;;;23.71;50.12;101116.03;5134674;27;20137;-79
2023/08/08 06:07:48;;;;;;;0.50;0.45;;;;;;;23.65;50.25;101126.72;5124409;27;20043;-80
2023/08/08 06:10:16;;;;;;;1.00;0.50;;;;;;;23.60;50.24;101126.81;5126606;27;20523;-79
2023/08/08 06:12:46;;;;;;;1.58;0.60;;;;;;;23.58;50.00;101116.28;5133481;27;20055;-79
2023/08/08 06:15:15;;;;;;;0.98;0.70;;;;;;;23.57;50.46;101117.19;5130784;27;20540;-80
2023/08/08 06:17:44;;;;;;;0.68;0.45;;;;;;;23.52;50.30;101119.00;5125792;27;20046;-79
2023/08/08 06:20:12;;;;;;;1.55;0.55;;;;;;;23.49;49.77;101124.38;5122026;27;20051;-82
2023/08/08 06:22:42;;;;;;;1.33;0.50;;;;;;;23.44;49.89;101120.94;5128893;27;20640;-78
2023/08/08 06:25:11;;;;;;;0.40;0.40;;;;;;;23.40;49.98;101120.13;5127393;27;20039;-81
2023/08/08 06:27:39;;;;;;;0.65;0.40;;;;;;;23.36;50.45;101117.56;5123868;27;20047;-79
2023/08/08 06:30:10;;;;;;;0.50;0.40;;;;;;;23.32;50.61;101126.41;5127070;27;20140;-80
2023/08/08 06:32:39;;;;;;;1.75;0.68;;;;;;;23.30;50.92;101126.47;5124961;27;20512;-79
2023/08/08 06:35:09;;;;;;;0.80;0.43;;;;;;;23.28;50.76;101122.13;5126604;27;20081;-77
2023/08/08 06:37:38;;;;;;;0.57;0.40;;;;;;;23.26;50.92;101126.56;5123871;27;20051;-78
2023/08/08 06:40:10;;;;;;;0.85;0.60;;;;;;;23.25;51.01;101128.31;5129512;27;20047;-79
2023/08/08 06:42:39;;;;;;;0.57;0.50;;;;;;;23.23;50.61;101132.75;5123370;27;20061;-79
2023/08/08 06:45:10;;;;;;;1.77;0.60;;;;;;;23.18;51.06;101135.47;5117008;27;20054;-79
2023/08/08 06:47:39;;;;;;;0.70;0.50;;;;;;;23.14;50.95;101128.50;5121202;27;20062;-80
2023/08/08 06:50:09;;;;;;;1.02;0.55;;;;;;;23.06;51.34;101138.28;5130413;27;20440;-80
2023/08/08 06:52:37;;;;;;;1.90;0.68;;;;;;;22.97;51.76;101136.63;5121641;27;20043;-80
2023/08/08 06:55:07;;;;;;;1.13;0.60;;;;;;;22.89;52.79;101128.00;5124419;27;20701;-78
2023/08/08 06:57:35;;;;;;;0.80;0.52;;;;;;;22.76;52.52;101129.94;5120964;27;20922;-79
2023/08/08 07:00:06;;;;;;;0.95;0.43;;;;;;;22.70;53.34;101135.31;5122546;27;20058;-80
2023/08/08 07:02:36;;;;;;;0.65;0.45;;;;;;;22.65;52.99;101123.06;5125339;27;20602;-80
2023/08/08 07:05:06;;;;;;;0.60;0.43;;;;;;;22.63;52.80;101140.69;5120512;27;20698;-79
2023/08/08 07:07:35;;;;;;;0.35;0.35;;;;;;;22.59;53.59;101135.47;5121521;27;20139;-80
2023/08/08 07:10:06;;;;;;;1.02;0.40;;;;;;;22.54;53.26;101131.13;5122901;27;20094;-80
2023/08/08 07:12:37;;;;;;;0.88;0.55;;;;;;;22.50;53.31;101129.44;5127763;27;20043;-81
2023/08/08 07:15:13;;;;;;;0.70;0.50;;;;;;;22.46;53.63;101133.03;5130504;27;20107;-80
2023/08/08 07:17:43;;;;;;;0.50;0.50;;;;;;;22.41;53.27;101127.81;5096101;27;20050;-79
2023/08/08 07:20:19;;;;;;;0.98;0.50;;;;;;;22.37;53.94;101132.22;5105802;27;20066;-81
2023/08/08 07:22:47;;;;;;;1.00;0.43;;;;;;;22.32;53.77;101126.16;5101206;27;20039;-80
2023/08/08 07:25:16;;;;;;;0.93;0.55;;;;;;;22.27;54.22;101121.84;5126186;27;20038;-80
2023/08/08 07:27:45;;;;;;;0.80;0.50;;;;;;;22.20;54.58;101131.56;5122136;27;20059;-80
2023/08/08 07:30:17;;;;;;;0.88;0.60;;;;;;;22.16;54.39;101135.13;5126257;27;20104;-79
2023/08/08 07:32:55;;;;;;;0.55;0.47;;;;;;;22.03;54.62;101125.63;5116420;27;20067;-79
2023/08/08 07:35:24;;;;;;;1.15;0.70;;;;;;;22.10;54.83;101138.69;5094843;28;20133;-81
2023/08/08 07:37:54;;;;;;;0.75;0.57;;;;;;;22.07;55.20;101140.50;5099668;27;20134;-80
2023/08/08 07:40:23;;;;;;;1.05;0.40;;;;;;;22.06;55.09;101141.38;5096356;28;20048;-79
2023/08/08 07:42:52;;;;;;;0.38;0.35;;;;;;;22.04;55.12;101140.56;5103905;27;20039;-80
2023/08/08 07:45:20;;;;;;;0.50;0.40;;;;;;;22.03;54.99;101141.44;5121301;27;20614;-80
2023/08/08 07:47:49;;;;;;;1.63;0.50;;;;;;;22.00;55.49;101144.97;5118481;27;20046;-79
2023/08/08 07:50:20;;;;;;;0.50;0.35;;;;;;;21.93;55.20;101148.56;5118866;27;20500;-79
2023/08/08 07:52:48;;;;;;;0.80;0.55;;;;;;;21.87;55.87;101143.38;5121750;27;20062;-78
2023/08/08 07:55:17;;;;;;;0.77;0.50;;;;;;;21.82;56.03;101140.78;5125477;27;20480;-80
2023/08/08 07:57:45;;;;;;;0.50;0.50;;;;;;;21.77;56.40;101142.59;5122392;27;20087;-82
2023/08/08 08:00:18;;;;;;;1.00;0.40;;;;;;;21.73;56.81;101154.06;5127049;27;20100;-78
2023/08/08 08:02:49;;;;;;;1.58;0.43;;;;;;;21.67;57.96;101157.63;5121455;27;20057;-78
2023/08/08 08:05:19;;;;;;;0.43;0.43;;;;;;;21.62;58.49;101158.56;5121579;27;20081;-79
2023/08/08 08:07:49;;;;;;;0.60;0.43;;;;;;;21.57;58.36;101155.09;5121298;27;20108;-79
2023/08/08 08:10:17;;;;;;;1.00;0.60;;;;;;;21.51;58.31;101151.63;5119840;27;20040;-78
2023/08/08 08:12:46;;;;;;;0.73;0.55;;;;;;;21.43;58.73;101158.72;5116484;27;20050;-78
2023/08/08 08:15:15;;;;;;;1.40;0.77;;;;;;;21.34;60.36;101158.78;5122051;27;20050;-79
2023/08/08 08:17:43;;;;;;;1.58;0.60;;;;;;;21.30;60.30;101159.69;5123947;27;20417;-79
2023/08/08 08:20:13;;;;;;;1.15;0.60;;;;;;;21.25;60.54;101159.72;5125690;27;20109;-78
2023/08/08 08:22:47;;;;;;;0.63;0.40;;;;;;;21.21;60.44;101154.47;5119961;27;20059;-78
2023/08/08 08:25:16;;;;;;;1.23;0.70;;;;;;;21.17;60.96;101152.78;5120073;27;20055;-76
2023/08/08 08:27:45;;;;;;;0.60;0.50;;;;;;;21.13;60.22;101150.16;5119342;27;20055;-78
2023/08/08 08:30:15;;;;;;;0.70;0.55;;;;;;;21.06;60.70;101153.72;5118888;27;20481;-79
2023/08/08 08:32:46;;;;;;;0.55;0.45;;;;;;;21.05;60.66;101149.38;5120703;27;20924;-79
2023/08/08 08:35:17;;;;;;;0.52;0.40;;;;;;;21.03;60.75;101156.41;5118582;27;20420;-76
2023/08/08 08:37:47;;;;;;;0.70;0.40;;;;;;;21.00;60.94;101159.03;5125471;27;20054;-78
2023/08/08 08:40:17;;;;;;;0.75;0.50;;;;;;;20.99;60.91;101152.03;5119886;27;20429;-78
2023/08/08 08:42:50;;;;;;;0.73;0.50;;;;;;;20.98;61.06;101154.66;5118113;27;20654;-79
2023/08/08 08:45:24;;;;;;;0.85;0.60;;;;;;;20.95;60.95;101159.97;5114317;27;20096;-79
2023/08/08 08:47:58;;;;;;;0.35;0.22;;;;;;;20.90;61.48;101146.84;5120615;27;20173;-79
2023/08/08 08:50:29;;;;;;;0.45;0.30;;;;;;;20.85;62.82;101153.91;5121752;28;20043;-79
2023/08/08 08:53:00;;;;;;;0.90;0.40;;;;;;;20.81;62.24;101154.78;5119676;27;20110;-77
2023/08/08 08:55:29;;;;;;;2.27;0.50;;;;;;;20.78;62.35;101152.19;5120675;27;20435;-79
2023/08/08 08:57:58;;;;;;;0.60;0.52;;;;;;;20.71;62.97;101144.34;5123585;27;20287;-78
2023/08/08 09:00:27;;;;;;;1.30;0.50;;;;;;;20.67;62.87;101145.22;5123503;27;20069;-77
2023/08/08 09:02:56;;;;;;;0.75;0.30;;;;;;;20.65;64.23;101154.88;5123212;27;20568;-77
2023/08/08 09:05:26;;;;;;;0.63;0.45;;;;;;;20.65;63.80;101147.00;5116261;27;20051;-77
2023/08/08 09:07:55;;;;;;;0.43;0.30;;;;;;;20.68;64.00;101146.09;5119618;27;20061;-77
2023/08/08 09:10:27;;;;;;;0.60;0.45;;;;;;;20.67;63.68;101147.84;5124145;27;20043;-77
2023/08/08 09:12:59;;;;;;;0.68;0.40;;;;;;;20.65;63.38;101151.38;5117370;27;20050;-78
2023/08/08 09:15:31;;;;;;;0.83;0.60;;;;;;;20.61;63.41;101155.75;5116467;27;20044;-75
2023/08/08 09:18:00;;;;;;;0.52;0.45;;;;;;;20.57;63.46;101151.44;5120884;27;20454;-77
2023/08/08 09:20:30;;;;;;;0.60;0.57;;;;;;;20.56;62.83;101161.91;5126183;27;20491;-79
2023/08/08 09:22:59;;;;;;;0.70;0.50;;;;;;;20.53;62.98;101161.94;5126945;27;20480;-77
2023/08/08 09:25:29;;;;;;;0.60;0.57;;;;;;;20.46;63.57;101167.22;5114732;28;20228;-78
2023/08/08 09:27:58;;;;;;;0.20;0.20;;;;;;;20.43;63.56;101167.25;5119318;27;20358;-79
2023/08/08 09:30:28;;;;;;;0.82;0.32;;;;;;;20.41;63.45;101168.09;5116483;28;20432;-79
2023/08/08 09:33:00;;;;;;;0.40;0.40;;;;;;;20.37;63.64;101161.13;5120965;27;20565;-79
2023/08/08 09:35:28;;;;;;;;;;;;;;;20.34;63.95;101167.28;5116705;27;20077;-79
2023/08/08 09:37:57;;;;;;;1.55;0.50;;;;;;;20.29;63.96;101169.94;5121223;28;19920;-78
2023/08/08 09:40:26;;;;;;;0.40;0.38;;;;;;;20.24;64.29;101166.41;5115072;27;20051;-78
2023/08/08 09:42:59;;;;;;;0.40;0.40;;;;;;;20.17;65.04;101162.06;5117886;28;20066;-77
2023/08/08 09:45:38;;;;;;;0.80;0.40;;;;;;;20.09;64.82;101162.13;5129724;27;20125;-77
2023/08/08 09:48:08;;;;;;;0.98;0.43;;;;;;;20.05;65.75;101157.75;5115602;27;20319;-78
2023/08/08 09:50:37;;;;;;;0.82;0.50;;;;;;;20.00;65.75;101156.88;5118998;27;20118;-78
2023/08/08 09:53:08;;;;;;;0.70;0.47;;;;;;;19.95;65.82;101157.75;5116782;28;20736;-78
2023/08/08 09:55:38;;;;;;;1.13;0.40;;;;;;;19.87;66.88;101156.03;5121793;27;20554;-79
2023/08/08 09:58:09;;;;;;;3.58;0.63;;;;;;;19.83;67.07;101161.31;5129208;27;20055;-78
2023/08/08 10:00:38;;;;;;;1.17;0.70;;;;;;;19.73;66.90;101159.59;5119667;27;20043;-79
2023/08/08 10:03:07;;;;;;;0.40;0.40;;;;;;;19.63;67.56;101166.53;5123229;27;20522;-79
2023/08/08 10:05:36;;;;;;;0.65;0.35;;;;;;;19.56;67.79;101165.69;5118424;27;20050;-78
2023/08/08 10:08:06;;;;;;;1.17;0.57;;;;;;;19.52;68.00;101166.56;5129890;27;20051;-78
2023/08/08 10:10:35;;;;;;;1.75;0.40;;;;;;;19.47;68.09;101170.97;5127335;27;20520;-78
2023/08/08 10:13:04;;;;;;;0.40;0.30;;;;;;;19.38;68.47;101155.22;5115143;27;20047;-78
2023/08/08 10:15:39;;;;;;;0.43;0.40;;;;;;;19.37;70.18;101164.81;5116923;27;20048;-76
2023/08/08 10:18:08;;;;;;;0.50;0.50;;;;;;;19.34;70.45;101170.06;5128133;27;20054;-78
2023/08/08 10:20:38;;;;;;;0.30;0.30;;;;;;;19.28;69.47;101154.31;5120052;27;20537;-78
2023/08/08 10:23:08;;;;;;;0.73;0.50;;;;;;;19.34;68.99;101154.34;5116535;27;20047;-78
2023/08/08 10:25:37;;;;;;;0.65;0.50;;;;;;;19.34;68.47;101151.72;5122435;27;20047;-78
2023/08/08 10:28:07;;;;;;;0.77;0.60;;;;;;;19.31;68.14;101162.22;5123997;27;20139;-77
2023/08/08 10:30:48;;;;;;;0.30;0.30;;;;;;;19.30;68.59;101159.59;5120284;27;20051;-78
2023/08/08 10:33:22;;;;;;;0.30;0.30;;;;;;;19.29;68.41;101158.72;5111688;27;20051;-79
2023/08/08 10:36:00;;;;;;;0.35;0.30;;;;;;;19.28;68.71;101159.56;5120611;27;20055;-79
2023/08/08 10:38:41;;;;;;;0.68;0.50;;;;;;;19.25;68.65;101155.19;5124954;27;20048;-78
2023/08/08 10:41:13;;;;;;;1.95;0.50;;;;;;;19.24;68.78;101152.56;5123821;27;20335;-77
2023/08/08 10:43:51;;;;;;;1.17;0.40;;;;;;;19.19;69.07;101152.56;5128831;27;20054;-77
2023/08/08 10:46:28;;;;;;;0.75;0.50;;;;;;;19.19;68.60;101149.06;5120670;27;20078;-79
2023/08/08 10:48:59;;;;;;;0.77;0.50;;;;;;;19.18;69.14;101157.84;5118864;27;20050;-79
2023/08/08 10:51:38;;;;;;;0.55;0.50;;;;;;;19.11;69.52;101145.59;5124898;27;20131;-78
2023/08/08 10:54:08;;;;;;;0.82;0.40;;;;;;;19.05;70.80;101155.19;5122354;27;20039;-77
2023/08/08 10:56:38;;;;;;;1.73;0.40;;;;;;;19.04;70.61;101158.69;5123737;27;20062;-77
2023/08/08 10:59:20;;;;;;;0.50;0.43;;;;;;;19.02;70.82;101163.06;5128041;27;20058;-78
2023/08/08 11:01:52;;;;;;;0.57;0.40;;;;;;;19.01;70.93;101156.06;5127668;27;20134;-76
2023/08/08 11:04:23;;;;;;;0.52;0.47;;;;;;;19.01;71.42;101160.41;5117908;27;20035;-78
2023/08/08 11:06:56;;;;;;;0.50;0.40;;;;;;;18.98;71.70;101156.06;5123009;27;20097;-79
2023/08/08 11:09:26;;;;;;;1.00;0.40;;;;;;;18.92;71.55;101149.91;5120443;27;20039;-77
2023/08/08 11:11:55;;;;;;;0.63;0.57;;;;;;;18.95;71.80;101163.06;5127559;27;20047;-77
2023/08/08 11:14:24;;;;;;;0.52;0.50;;;;;;;18.95;71.73;101161.31;5118286;27;20167;-79
2023/08/08 11:16:55;;;;;;;0.50;0.40;;;;;;;18.93;71.45;101160.44;5124788;27;20058;-78
2023/08/08 11:19:24;;;;;;;3.90;0.70;;;;;;;18.86;70.93;101145.56;5124016;27;20098;-78
2023/08/08 11:21:53;;;;;;;1.48;0.50;;;;;;;18.93;71.63;101154.31;5122379;27;20412;-78
2023/08/08 11:24:22;;;;;;;0.60;0.47;;;;;;;18.92;71.57;101158.69;5121581;27;20078;-77
2023/08/08 11:26:52;;;;;;;1.23;0.73;;;;;;;18.92;71.06;101149.91;5117982;27;20044;-77
2023/08/08 11:29:20;;;;;;;0.25;0.25;;;;;;;18.90;71.08;101157.81;5121257;27;20043;-79
2023/08/08 11:31:50;;;;;;;0.60;0.50;;;;;;;18.86;70.70;101150.81;5123120;27;20039;-77
2023/08/08 11:34:20;;;;;;;0.47;0.40;;;;;;;18.81;71.48;101153.41;5128459;27;20055;-78
2023/08/08 11:36:50;;;;;;;0.60;0.50;;;;;;;18.78;71.71;101152.53;5118921;27;20570;-78